To NAV CANADA Home Page Login to a new session Search on AWWS site Disclaimer Vers la page française équivalente Tips FAQ What's new on the site To the Forecasts and Observations / NOTAM section To "File a Flight Plan" website Publications and other links Update of the User's profile FIC Telephone Numbers My Weather Data Folder Route Weather Data Regional Weather Data Local Weather Data To the Forecasts and Observations / NOTAM section
Request Generated 03/19/2019 at 23:04:17 UTC . Weather information available at that time is displayed.

METAR/TAF

KAPUSKASING/ON    

METAR CYYU 192300Z 20009KT 14SM FEW035 BKN081 OVC260 03/M04 A3001 RMK SC2AC3CI3 SLP178=
METAR CYYU 192200Z 21017G22KT 15SM FEW040 SCT050 BKN080 03/M05 A3003 RMK SC2SC1AC4 SLP187=
METAR CYYU 192100Z 22015G20KT 15SM FEW027 SCT042 BKN074 BKN260 04/M05 A3005 RMK SC1SC2AC3CI1 SLP194=

TAF CYYU 191938Z 1920/2008 23012KT P6SM BKN060
FM200500 22008KT 6SM -SN OVC030 TEMPO 2005/2008 2SM -SN OVC015
PROB40 2005/2008 1SM -SHSN
RMK NXT FCST BY 200200Z=
Your time UTC time
Weather data provided by Environment Canada and NAV CANADA